createdAt,value
2018-02-10T00:00:32.150Z,-3.72
2018-02-10T00:01:32.018Z,-3.61
2018-02-10T00:02:31.887Z,-3.72
2018-02-10T00:03:31.752Z,-3.78
2018-02-10T00:04:31.615Z,-3.72
2018-02-10T00:05:31.483Z,-3.81
2018-02-10T00:06:31.351Z,-3.96
2018-02-10T00:07:31.216Z,-3.91
2018-02-10T00:08:31.085Z,-3.91
2018-02-10T00:09:30.948Z,-3.99
2018-02-10T00:10:30.815Z,-4.08
2018-02-10T00:11:30.678Z,-4.05
2018-02-10T00:12:30.543Z,-4.18
2018-02-10T00:13:30.414Z,-4.09
2018-02-10T00:14:30.276Z,-4.09
2018-02-10T00:15:30.142Z,-4.02
2018-02-10T00:16:30.009Z,-3.98
2018-02-10T00:17:29.875Z,-3.99
2018-02-10T00:18:29.743Z,-3.99
2018-02-10T00:19:29.608Z,-3.90
2018-02-10T00:20:29.472Z,-4.07
2018-02-10T00:21:29.340Z,-4.07
2018-02-10T00:22:29.206Z,-4.09
2018-02-10T00:23:29.069Z,-4.20
2018-02-10T00:24:28.934Z,-4.28
2018-02-10T00:25:28.801Z,-4.26
2018-02-10T00:26:28.670Z,-4.33
2018-02-10T00:27:28.542Z,-4.36
2018-02-10T00:28:28.398Z,-4.25
2018-02-10T00:29:28.263Z,-4.19
2018-02-10T00:30:28.130Z,-4.26
2018-02-10T00:31:27.995Z,-4.23
2018-02-10T00:32:27.859Z,-4.32
2018-02-10T00:33:27.726Z,-4.33
2018-02-10T00:34:27.592Z,-4.32
2018-02-10T00:35:27.453Z,-4.36
2018-02-10T00:36:27.320Z,-4.33
2018-02-10T00:37:27.187Z,-4.32
2018-02-10T00:38:27.051Z,-4.22
2018-02-10T00:39:26.916Z,-4.32
2018-02-10T00:40:26.781Z,-4.25
2018-02-10T00:41:26.644Z,-4.14
2018-02-10T00:42:26.517Z,-4.20
2018-02-10T00:43:26.377Z,-4.19
2018-02-10T00:44:26.241Z,-4.14
2018-02-10T00:45:26.105Z,-4.07
2018-02-10T00:46:25.973Z,-4.19
2018-02-10T00:47:25.837Z,-4.11
2018-02-10T00:48:25.701Z,-4.19
2018-02-10T00:49:25.569Z,-4.15
2018-02-10T00:50:25.431Z,-4.15
2018-02-10T00:51:25.294Z,-4.14
2018-02-10T00:52:25.159Z,-4.14
2018-02-10T00:53:25.028Z,-4.20
2018-02-10T00:54:24.894Z,-4.18
2018-02-10T00:55:24.758Z,-4.25
2018-02-10T00:56:24.623Z,-4.20
2018-02-10T00:57:24.489Z,-4.26
2018-02-10T00:58:24.353Z,-4.36
2018-02-10T00:59:24.217Z,-4.44
2018-02-10T01:00:24.085Z,-4.30
2018-02-10T01:01:23.948Z,-4.28
2018-02-10T01:02:23.815Z,-4.23
2018-02-10T01:03:23.681Z,-4.22
2018-02-10T01:04:23.545Z,-4.14
2018-02-10T01:05:23.408Z,-4.19
2018-02-10T01:06:23.274Z,-4.14
2018-02-10T01:07:23.139Z,-4.15
2018-02-10T01:08:23.011Z,-4.19
2018-02-10T01:09:22.875Z,-4.14
2018-02-10T01:10:22.734Z,-4.19
2018-02-10T01:11:22.601Z,-4.18
2018-02-10T01:12:22.467Z,-4.14
2018-02-10T01:13:22.331Z,-4.14
2018-02-10T01:14:22.197Z,-4.23
2018-02-10T01:15:22.068Z,-4.15
2018-02-10T01:16:21.929Z,-4.20
2018-02-10T01:17:21.795Z,-4.15
2018-02-10T01:18:21.658Z,-4.22
2018-02-10T01:19:21.525Z,-4.23
2018-02-10T01:20:21.389Z,-4.23
2018-02-10T01:21:21.251Z,-4.26
2018-02-10T01:22:21.125Z,-4.28
2018-02-10T01:23:20.987Z,-4.26
2018-02-10T01:24:20.849Z,-4.23
2018-02-10T01:25:20.712Z,-4.25
2018-02-10T01:26:20.578Z,-4.33
2018-02-10T01:27:20.442Z,-4.32
2018-02-10T01:28:20.310Z,-4.32
2018-02-10T01:29:20.173Z,-4.33
2018-02-10T01:30:20.038Z,-4.28
2018-02-10T01:31:19.908Z,-4.41
2018-02-10T01:32:19.833Z,-4.25
2018-02-10T01:33:19.634Z,-4.33
2018-02-10T01:34:19.499Z,-4.25
2018-02-10T01:35:19.364Z,-4.29
2018-02-10T01:36:19.231Z,-4.36
2018-02-10T01:37:19.094Z,-4.32
2018-02-10T01:38:18.963Z,-4.37
2018-02-10T01:39:18.824Z,-4.32
2018-02-10T01:40:18.689Z,-4.30
2018-02-10T01:41:18.554Z,-4.29
2018-02-10T01:42:18.418Z,-4.25
2018-02-10T01:43:18.284Z,-4.20
2018-02-10T01:44:18.155Z,-4.28
2018-02-10T01:45:18.017Z,-4.19
2018-02-10T01:46:17.881Z,-4.26
2018-02-10T01:47:17.743Z,-4.22
2018-02-10T01:48:17.610Z,-4.22
2018-02-10T01:49:17.475Z,-4.25
2018-02-10T01:50:17.339Z,-4.23
2018-02-10T01:51:17.203Z,-4.19
2018-02-10T01:52:17.069Z,-4.29
2018-02-10T01:53:16.933Z,-4.30
2018-02-10T01:54:16.800Z,-4.36
2018-02-10T01:55:16.664Z,-4.32
2018-02-10T01:56:16.534Z,-4.38
2018-02-10T01:57:16.398Z,-4.40
2018-02-10T01:58:16.262Z,-4.50
2018-02-10T01:59:16.125Z,-4.40
2018-02-10T02:00:15.991Z,-4.43
2018-02-10T02:01:15.854Z,-4.46
2018-02-10T02:02:15.721Z,-4.37
2018-02-10T02:03:15.586Z,-4.33
2018-02-10T02:04:15.453Z,-4.37
2018-02-10T02:05:15.318Z,-4.32
2018-02-10T02:06:15.185Z,-4.30
2018-02-10T02:07:15.049Z,-4.44
2018-02-10T02:08:14.913Z,-4.44
2018-02-10T02:09:14.777Z,-4.47
2018-02-10T02:10:14.643Z,-4.47
2018-02-10T02:11:14.516Z,-4.46
2018-02-10T02:12:14.378Z,-4.40
2018-02-10T02:13:14.238Z,-4.48
2018-02-10T02:14:14.107Z,-4.50
2018-02-10T02:15:13.971Z,-4.30
2018-02-10T02:16:13.835Z,-4.36
2018-02-10T02:17:13.700Z,-4.30
2018-02-10T02:18:13.567Z,-4.30
2018-02-10T02:19:13.429Z,-4.29
2018-02-10T02:20:13.311Z,-4.43
2018-02-10T02:21:13.161Z,-4.43
2018-02-10T02:22:13.026Z,-4.32
2018-02-10T02:23:12.892Z,-4.46
2018-02-10T02:24:12.761Z,-4.44
2018-02-10T02:25:12.621Z,-4.47
2018-02-10T02:26:12.489Z,-4.47
2018-02-10T02:27:12.354Z,-4.40
2018-02-10T02:28:12.216Z,-4.50
2018-02-10T02:29:12.082Z,-4.50
2018-02-10T02:30:11.946Z,-4.64
2018-02-10T02:31:11.810Z,-4.62
2018-02-10T02:32:11.676Z,-4.64
2018-02-10T02:33:11.542Z,-4.47
2018-02-10T02:34:11.407Z,-4.44
2018-02-10T02:35:11.277Z,-4.44
2018-02-10T02:36:11.138Z,-4.36
2018-02-10T02:37:11.002Z,-4.41
2018-02-10T02:38:10.869Z,-4.41
2018-02-10T02:39:10.732Z,-4.40
2018-02-10T02:40:10.600Z,-4.33
2018-02-10T02:41:10.465Z,-4.33
2018-02-10T02:42:10.330Z,-4.41
2018-02-10T02:43:10.201Z,-4.41
2018-02-10T02:44:10.059Z,-4.36
2018-02-10T02:45:09.923Z,-4.37
2018-02-10T02:46:09.796Z,-4.23
2018-02-10T02:47:09.657Z,-4.38
2018-02-10T02:48:09.522Z,-4.30
2018-02-10T02:49:09.389Z,-4.22
2018-02-10T02:50:09.253Z,-4.29
2018-02-10T02:51:09.119Z,-4.47
2018-02-10T02:52:08.981Z,-4.41
2018-02-10T02:53:08.849Z,-4.40
2018-02-10T02:54:08.713Z,-4.43
2018-02-10T02:55:08.578Z,-4.48
2018-02-10T02:56:08.441Z,-4.44
2018-02-10T02:57:08.305Z,-4.47
2018-02-10T02:58:08.171Z,-4.48
2018-02-10T02:59:08.035Z,-4.54
2018-02-10T03:00:07.901Z,-4.58
2018-02-10T03:01:07.766Z,-4.59
2018-02-10T03:02:07.630Z,-4.61
2018-02-10T03:03:07.493Z,-4.59
2018-02-10T03:04:07.361Z,-4.57
2018-02-10T03:05:07.225Z,-4.51
2018-02-10T03:06:07.090Z,-4.54
2018-02-10T03:07:06.951Z,-4.65
2018-02-10T03:08:06.820Z,-4.58
2018-02-10T03:09:06.683Z,-4.59
2018-02-10T03:10:06.546Z,-4.54
2018-02-10T03:11:06.412Z,-4.50
2018-02-10T03:12:06.276Z,-4.55
2018-02-10T03:13:06.145Z,-4.47
2018-02-10T03:14:06.012Z,-4.43
2018-02-10T03:15:05.874Z,-4.48
2018-02-10T03:16:05.735Z,-4.51
2018-02-10T03:17:05.602Z,-4.48
2018-02-10T03:18:05.469Z,-4.50
2018-02-10T03:19:05.337Z,-4.47
2018-02-10T03:20:05.194Z,-4.46
2018-02-10T03:21:05.059Z,-4.47
2018-02-10T03:22:04.928Z,-4.48
2018-02-10T03:23:04.788Z,-4.46
2018-02-10T03:24:04.654Z,-4.46
2018-02-10T03:25:04.519Z,-4.48
2018-02-10T03:26:04.385Z,-4.46
2018-02-10T03:27:04.248Z,-4.50
2018-02-10T03:28:04.115Z,-4.43
2018-02-10T03:29:03.977Z,-4.44
2018-02-10T03:30:03.845Z,-4.38
2018-02-10T03:31:03.709Z,-4.40
2018-02-10T03:32:03.574Z,-4.40
2018-02-10T03:33:03.437Z,-4.47
2018-02-10T03:34:03.302Z,-4.50
2018-02-10T03:35:03.166Z,-4.43
2018-02-10T03:36:03.034Z,-4.62
2018-02-10T03:37:02.899Z,-4.57
2018-02-10T03:38:02.768Z,-4.66
2018-02-10T03:39:02.627Z,-4.79
2018-02-10T03:40:02.496Z,-4.86
2018-02-10T03:41:02.359Z,-4.86
2018-02-10T03:42:02.225Z,-4.82
2018-02-10T03:43:02.091Z,-4.82
2018-02-10T03:44:01.953Z,-4.79
2018-02-10T03:45:01.817Z,-4.79
2018-02-10T03:46:01.682Z,-4.75
2018-02-10T03:47:01.554Z,-4.59
2018-02-10T03:48:01.412Z,-4.57
2018-02-10T03:49:01.279Z,-4.58
2018-02-10T03:50:01.142Z,-4.68
2018-02-10T03:51:01.008Z,-4.46
2018-02-10T03:52:00.871Z,-4.57
2018-02-10T03:53:00.737Z,-4.61
2018-02-10T03:54:00.601Z,-4.59
2018-02-10T03:55:00.469Z,-4.58
2018-02-10T03:56:00.335Z,-4.61
2018-02-10T03:57:00.197Z,-4.58
2018-02-10T03:58:00.062Z,-4.59
2018-02-10T03:58:59.929Z,-4.61
2018-02-10T03:59:59.794Z,-4.59
2018-02-10T04:00:59.654Z,-4.54
2018-02-10T04:01:59.523Z,-4.62
2018-02-10T04:02:59.387Z,-4.61
2018-02-10T04:03:59.250Z,-4.65
2018-02-10T04:04:59.117Z,-4.50
2018-02-10T04:05:58.984Z,-4.50
2018-02-10T04:06:58.849Z,-4.48
2018-02-10T04:07:58.711Z,-4.48
2018-02-10T04:08:58.578Z,-4.55
2018-02-10T04:09:58.443Z,-4.48
2018-02-10T04:10:58.310Z,-4.61
2018-02-10T04:11:58.171Z,-4.59
2018-02-10T04:12:58.040Z,-4.58
2018-02-10T04:13:57.904Z,-4.55
2018-02-10T04:14:57.773Z,-4.58
2018-02-10T04:15:57.632Z,-4.58
2018-02-10T04:16:57.496Z,-4.57
2018-02-10T04:17:57.364Z,-4.68
2018-02-10T04:18:57.229Z,-4.68
2018-02-10T04:19:57.093Z,-4.64
2018-02-10T04:20:56.957Z,-4.77
2018-02-10T04:21:56.823Z,-4.79
2018-02-10T04:22:56.687Z,-4.76
2018-02-10T04:23:56.550Z,-4.73
2018-02-10T04:24:56.414Z,-4.69
2018-02-10T04:25:56.278Z,-4.71
2018-02-10T04:26:56.140Z,-4.76
2018-02-10T04:27:56.009Z,-4.64
2018-02-10T04:28:55.873Z,-4.79
2018-02-10T04:29:55.736Z,-4.82
2018-02-10T04:30:55.604Z,-4.71
2018-02-10T04:31:55.466Z,-4.80
2018-02-10T04:32:55.330Z,-4.76
2018-02-10T04:33:55.210Z,-4.75
2018-02-10T04:34:55.061Z,-4.73
2018-02-10T04:35:54.924Z,-4.58
2018-02-10T04:36:54.787Z,-4.61
2018-02-10T04:37:54.654Z,-4.48
2018-02-10T04:38:54.521Z,-4.50
2018-02-10T04:39:54.383Z,-4.51
2018-02-10T04:40:54.247Z,-4.54
2018-02-10T04:41:54.116Z,-4.50
2018-02-10T04:42:53.975Z,-4.47
2018-02-10T04:43:53.843Z,-4.46
2018-02-10T04:44:53.709Z,-4.48
2018-02-10T04:45:53.570Z,-4.55
2018-02-10T04:46:53.434Z,-4.58
2018-02-10T04:47:53.300Z,-4.66
2018-02-10T04:48:53.164Z,-4.66
2018-02-10T04:49:53.031Z,-4.66
2018-02-10T04:50:52.893Z,-4.61
2018-02-10T04:51:52.761Z,-4.59
2018-02-10T04:52:52.625Z,-4.58
2018-02-10T04:53:52.488Z,-4.58
2018-02-10T04:54:52.350Z,-4.58
2018-02-10T04:55:52.215Z,-4.59
2018-02-10T04:56:52.082Z,-4.66
2018-02-10T04:57:51.946Z,-4.47
2018-02-10T04:58:51.811Z,-4.44
2018-02-10T04:59:51.675Z,-4.46
2018-02-10T05:00:51.540Z,-4.37
2018-02-10T05:01:51.405Z,-4.48
2018-02-10T05:02:51.271Z,-4.48
2018-02-10T05:03:51.136Z,-4.44
2018-02-10T05:04:50.999Z,-4.48
2018-02-10T05:05:50.864Z,-4.41
2018-02-10T05:06:50.727Z,-4.41
2018-02-10T05:07:50.594Z,-4.41
2018-02-10T05:08:50.461Z,-4.51
2018-02-10T05:09:50.332Z,-4.61
2018-02-10T05:10:50.188Z,-4.62
2018-02-10T05:11:50.055Z,-4.57
2018-02-10T05:12:49.922Z,-4.59
2018-02-10T05:13:49.785Z,-4.62
2018-02-10T05:14:49.645Z,-4.69
2018-02-10T05:15:49.513Z,-4.69
2018-02-10T05:16:49.375Z,-4.69
2018-02-10T05:17:49.242Z,-4.62
2018-02-10T05:18:49.108Z,-4.64
2018-02-10T05:19:48.972Z,-4.57
2018-02-10T05:20:48.837Z,-4.59
2018-02-10T05:21:48.700Z,-4.58
2018-02-10T05:22:48.566Z,-4.58
2018-02-10T05:23:48.428Z,-4.65
2018-02-10T05:24:48.293Z,-4.48
2018-02-10T05:25:48.161Z,-4.48
2018-02-10T05:26:48.026Z,-4.48
2018-02-10T05:27:47.888Z,-4.50
2018-02-10T05:28:47.756Z,-4.46
2018-02-10T05:29:47.620Z,-4.38
2018-02-10T05:30:47.484Z,-4.36
2018-02-10T05:31:47.351Z,-4.36
2018-02-10T05:32:47.216Z,-4.40
2018-02-10T05:33:47.082Z,-4.38
2018-02-10T05:34:46.943Z,-4.29
2018-02-10T05:35:46.810Z,-4.38
2018-02-10T05:36:46.675Z,-4.37
2018-02-10T05:37:46.540Z,-4.38
2018-02-10T05:38:46.405Z,-4.41
2018-02-10T05:39:46.267Z,-4.43
2018-02-10T05:40:46.134Z,-4.48
2018-02-10T05:41:46.000Z,-4.50
2018-02-10T05:42:45.865Z,-4.57
2018-02-10T05:43:45.727Z,-4.61
2018-02-10T05:44:45.595Z,-4.55
2018-02-10T05:45:45.461Z,-4.61
2018-02-10T05:46:45.322Z,-4.58
2018-02-10T05:47:45.188Z,-4.59
2018-02-10T05:48:45.053Z,-4.64
2018-02-10T05:49:44.918Z,-4.61
2018-02-10T05:50:44.783Z,-4.64
2018-02-10T05:51:44.650Z,-4.62
2018-02-10T05:52:44.512Z,-4.61
2018-02-10T05:53:44.379Z,-4.57
2018-02-10T05:54:44.240Z,-4.66
2018-02-10T05:55:44.105Z,-4.62
2018-02-10T05:56:43.973Z,-4.62
2018-02-10T05:57:43.837Z,-4.59
2018-02-10T05:58:43.701Z,-4.65
2018-02-10T05:59:43.565Z,-4.66
2018-02-10T06:00:43.432Z,-4.77
2018-02-10T06:01:43.296Z,-4.76
2018-02-10T06:02:43.160Z,-4.79
2018-02-10T06:03:43.026Z,-4.73
2018-02-10T06:04:42.893Z,-4.73
2018-02-10T06:05:42.755Z,-4.79
2018-02-10T06:06:42.623Z,-4.79
2018-02-10T06:07:42.487Z,-4.77
2018-02-10T06:08:42.351Z,-4.75
2018-02-10T06:09:42.217Z,-4.75
2018-02-10T06:10:42.095Z,-4.64
2018-02-10T06:11:41.948Z,-4.61
2018-02-10T06:12:41.814Z,-4.61
2018-02-10T06:13:41.681Z,-4.59
2018-02-10T06:14:41.546Z,-4.59
2018-02-10T06:15:41.407Z,-4.58
2018-02-10T06:16:41.296Z,-4.65
2018-02-10T06:17:41.137Z,-4.68
2018-02-10T06:18:41.131Z,-4.75
2018-02-10T06:19:40.888Z,-4.71
2018-02-10T06:20:40.775Z,-4.77
2018-02-10T06:21:40.612Z,-4.77
2018-02-10T06:22:40.462Z,-4.69
2018-02-10T06:23:40.326Z,-4.79
2018-02-10T06:24:40.190Z,-4.77
2018-02-10T06:25:40.058Z,-4.79
2018-02-10T06:26:39.934Z,-4.69
2018-02-10T06:27:39.784Z,-4.69
2018-02-10T06:28:39.648Z,-4.61
2018-02-10T06:29:39.529Z,-4.62
2018-02-10T06:30:39.382Z,-4.62
2018-02-10T06:31:39.314Z,-4.68
2018-02-10T06:32:39.107Z,-4.58
2018-02-10T06:33:39.006Z,-4.73
2018-02-10T06:34:38.837Z,-4.91
2018-02-10T06:35:38.704Z,-4.98
2018-02-10T06:36:38.572Z,-4.93
2018-02-10T06:37:38.433Z,-4.97
2018-02-10T06:38:38.300Z,-4.89
2018-02-10T06:39:38.232Z,-4.94
2018-02-10T06:40:38.031Z,-4.94
2018-02-10T06:41:37.895Z,-4.87
2018-02-10T06:42:37.758Z,-4.80
2018-02-10T06:43:37.626Z,-4.89
2018-02-10T06:44:37.491Z,-4.89
2018-02-10T06:45:37.353Z,-4.89
2018-02-10T06:46:44.354Z,-4.95
2018-02-10T06:48:29.889Z,-4.83
2018-02-10T06:49:29.721Z,-4.87
2018-02-10T06:51:22.399Z,-4.87
2018-02-10T06:52:22.241Z,-4.79
2018-02-10T06:54:14.858Z,-4.83
2018-02-10T06:55:14.812Z,-4.86
2018-02-10T06:57:22.502Z,-4.79
2018-02-10T06:58:29.432Z,-4.73
2018-02-10T07:00:14.924Z,-4.66
2018-02-10T07:01:14.780Z,-4.68
2018-02-10T07:02:14.647Z,-4.61
2018-02-10T07:03:14.511Z,-4.69
2018-02-10T07:04:14.376Z,-4.79
2018-02-10T07:05:14.242Z,-4.76
2018-02-10T07:06:14.107Z,-4.71
2018-02-10T07:07:13.968Z,-4.86
2018-02-10T07:08:13.832Z,-4.87
2018-02-10T07:09:13.700Z,-4.91
2018-02-10T07:10:13.563Z,-4.77
2018-02-10T07:11:13.431Z,-4.79
2018-02-10T07:12:13.298Z,-4.79
2018-02-10T07:13:13.159Z,-4.76
2018-02-10T07:14:13.025Z,-4.71
2018-02-10T07:15:12.889Z,-4.76
2018-02-10T07:16:12.755Z,-4.71
2018-02-10T07:17:12.631Z,-4.62
2018-02-10T07:18:12.484Z,-4.59
2018-02-10T07:19:12.348Z,-4.68
2018-02-10T07:20:12.212Z,-4.54
2018-02-10T07:21:12.082Z,-4.61
2018-02-10T07:22:11.945Z,-4.61
2018-02-10T07:23:11.808Z,-4.62
2018-02-10T07:24:11.672Z,-4.47
2018-02-10T07:25:11.553Z,-4.48
2018-02-10T07:26:11.404Z,-4.44
2018-02-10T07:27:11.272Z,-4.47
2018-02-10T07:28:11.141Z,-4.48
2018-02-10T07:29:10.998Z,-4.51
2018-02-10T07:30:10.970Z,-4.46
2018-02-10T07:31:10.805Z,-4.32
2018-02-10T07:32:10.596Z,-4.33
2018-02-10T07:33:10.460Z,-4.47
2018-02-10T07:34:10.325Z,-4.51
2018-02-10T07:35:10.190Z,-4.46
2018-02-10T07:36:10.060Z,-4.62
2018-02-10T07:37:09.922Z,-4.59
2018-02-10T07:38:09.789Z,-4.61
2018-02-10T07:39:09.724Z,-4.66
2018-02-10T07:40:09.814Z,-4.75
2018-02-10T07:41:09.382Z,-4.77
2018-02-10T07:42:09.247Z,-4.79
2018-02-10T07:43:09.286Z,-4.80
2018-02-10T07:44:08.983Z,-4.83
2018-02-10T07:45:08.843Z,-4.79
2018-02-10T07:46:08.707Z,-4.75
2018-02-10T07:47:08.573Z,-4.75
2018-02-10T07:48:08.439Z,-4.66
2018-02-10T07:49:08.303Z,-4.69
2018-02-10T07:50:08.168Z,-4.59
2018-02-10T07:51:08.035Z,-4.55
2018-02-10T07:52:07.900Z,-4.51
2018-02-10T07:53:07.762Z,-4.51
2018-02-10T07:54:07.629Z,-4.48
2018-02-10T07:55:07.494Z,-4.51
2018-02-10T07:56:07.553Z,-4.46
2018-02-10T07:57:08.616Z,-4.54
2018-02-10T07:58:08.009Z,-4.44
2018-02-10T07:59:07.057Z,-4.40
2018-02-10T08:00:14.188Z,-4.23
2018-02-10T08:01:59.509Z,-4.20
2018-02-10T08:02:59.321Z,-4.07
2018-02-10T08:04:51.967Z,-3.90
2018-02-10T08:05:51.818Z,-3.94
2018-02-10T08:07:44.711Z,-3.87
2018-02-10T08:08:44.533Z,-3.87
2018-02-10T08:10:37.182Z,-3.87
2018-02-10T08:11:37.040Z,-4.05
2018-02-10T08:13:29.734Z,-4.19
2018-02-10T08:14:29.556Z,-4.22
2018-02-10T08:16:22.200Z,-4.11
2018-02-10T08:17:22.056Z,-4.07
2018-02-10T08:19:14.749Z,-4.01
2018-02-10T08:20:14.565Z,-3.98
2018-02-10T08:22:19.937Z,-3.91
2018-02-10T08:23:19.795Z,-3.87
2018-02-10T08:25:12.479Z,-3.87
2018-02-10T08:26:12.315Z,-3.81
2018-02-10T08:28:20.957Z,-3.90
2018-02-10T08:29:20.769Z,-3.90
2018-02-10T08:31:14.267Z,-3.75
2018-02-10T08:32:14.124Z,-3.75
2018-02-10T08:37:37.656Z,-3.90
2018-02-10T08:38:36.997Z,-3.83
2018-02-10T08:40:44.351Z,-3.72
2018-02-10T08:41:43.927Z,-3.86
2018-02-10T08:44:20.677Z,-3.80
2018-02-10T08:45:20.596Z,-3.72
2018-02-10T08:47:13.185Z,-3.80
2018-02-10T08:48:12.998Z,-3.72
2018-02-10T08:50:05.673Z,-3.67
2018-02-10T08:51:05.513Z,-3.83
2018-02-10T08:53:26.353Z,-3.96
2018-02-10T08:54:33.155Z,-3.75
2018-02-10T08:56:18.694Z,-3.65
2018-02-10T08:57:18.523Z,-3.67
2018-02-10T08:59:11.206Z,-3.54
2018-02-10T09:00:11.024Z,-3.47
2018-02-10T09:02:18.745Z,-3.14
2018-02-10T09:03:18.603Z,-3.02
2018-02-10T09:05:12.983Z,-2.66
2018-02-10T09:06:12.804Z,-2.50
2018-02-10T09:08:05.653Z,-2.24
2018-02-10T09:09:05.478Z,-2.24
2018-02-10T09:10:58.124Z,-2.47
2018-02-10T09:11:57.985Z,-2.39
2018-02-10T09:13:50.695Z,-2.03
2018-02-10T09:14:50.484Z,-2.08
2018-02-10T09:16:43.226Z,-1.87
2018-02-10T09:17:43.086Z,-1.70
2018-02-10T09:19:36.612Z,-1.48
2018-02-10T09:20:36.462Z,-1.56
2018-02-10T09:22:29.105Z,-1.53
2018-02-10T09:23:28.961Z,-1.51
2018-02-10T09:25:21.638Z,-1.57
2018-02-10T09:26:21.465Z,-1.62
2018-02-10T09:28:14.344Z,-2.00
2018-02-10T09:29:14.148Z,-2.23
2018-02-10T09:31:06.790Z,-2.29
2018-02-10T09:32:06.656Z,-2.35
2018-02-10T09:33:59.339Z,-2.42
2018-02-10T09:34:59.157Z,-2.20
2018-02-10T09:36:51.800Z,-2.24
2018-02-10T09:37:51.661Z,-2.32
2018-02-10T09:39:44.351Z,-2.38
2018-02-10T09:40:44.165Z,-2.54
2018-02-10T09:42:36.908Z,-2.50
2018-02-10T09:43:36.760Z,-2.63
2018-02-10T09:45:29.449Z,-2.45
2018-02-10T09:46:29.271Z,-2.40
2018-02-10T09:48:21.912Z,-2.28
2018-02-10T09:50:34.554Z,-2.43
2018-02-10T09:51:34.374Z,-2.32
2018-02-10T09:53:27.026Z,-2.47
2018-02-10T09:54:26.881Z,-2.61
2018-02-10T09:56:34.646Z,-2.76
2018-02-10T09:57:34.459Z,-2.93
2018-02-10T09:59:27.107Z,-3.18
2018-02-10T10:00:26.966Z,-3.23
2018-02-10T10:02:34.752Z,-2.93
2018-02-10T10:03:34.573Z,-2.92
2018-02-10T10:05:28.063Z,-2.78
2018-02-10T10:06:27.925Z,-3.04
2018-02-10T10:08:22.309Z,-2.92
2018-02-10T10:09:22.224Z,-2.99
2018-02-10T10:11:14.773Z,-2.69
2018-02-10T10:12:14.653Z,-2.64
2018-02-10T10:14:08.082Z,-2.61
2018-02-10T10:15:07.902Z,-2.61
2018-02-10T10:17:00.553Z,-2.89
2018-02-10T10:18:00.411Z,-3.07
2018-02-10T10:19:53.088Z,-2.93
2018-02-10T10:20:52.982Z,-2.90
2018-02-10T10:22:46.447Z,-2.63
2018-02-10T10:23:46.264Z,-2.60
2018-02-10T10:25:38.912Z,-2.35
2018-02-10T10:26:38.792Z,-2.42
2018-02-10T10:28:46.537Z,-2.40
2018-02-10T10:29:46.359Z,-2.57
2018-02-10T10:31:39.018Z,-2.51
2018-02-10T10:32:38.889Z,-2.53
2018-02-10T10:34:31.575Z,-2.50
2018-02-10T10:35:31.380Z,-2.58
2018-02-10T10:37:24.181Z,-2.54
2018-02-10T10:38:23.885Z,-2.58
2018-02-10T10:40:16.603Z,-2.51
2018-02-10T10:41:16.433Z,-2.56
2018-02-10T10:43:09.075Z,-2.47
2018-02-10T10:44:08.940Z,-2.58
2018-02-10T10:46:01.613Z,-2.43
2018-02-10T10:47:01.437Z,-2.33
2018-02-10T10:48:54.088Z,-2.13
2018-02-10T10:49:53.945Z,-1.95
2018-02-10T10:51:46.626Z,-2.02
2018-02-10T10:52:46.455Z,-2.14
2018-02-10T10:54:39.101Z,-2.11
2018-02-10T10:55:38.962Z,-2.06
2018-02-10T10:57:31.641Z,-1.85
2018-02-10T10:58:31.470Z,-1.82
2018-02-10T11:00:24.119Z,-1.93
2018-02-10T11:01:23.980Z,-2.10
2018-02-10T11:03:16.660Z,-1.98
2018-02-10T11:04:16.495Z,-2.24
2018-02-10T11:06:09.184Z,-2.05
2018-02-10T11:07:09.001Z,-1.92
2018-02-10T11:09:01.649Z,-1.81
2018-02-10T11:10:01.511Z,-1.93
2018-02-10T11:11:54.195Z,-2.02
2018-02-10T11:12:54.016Z,-2.05
2018-02-10T11:14:46.659Z,-2.16
2018-02-10T11:15:46.517Z,-2.26
2018-02-10T11:17:39.206Z,-2.29
2018-02-10T11:18:39.022Z,-2.10
2018-02-10T11:20:31.870Z,-1.92
2018-02-10T11:21:31.730Z,-1.74
2018-02-10T11:23:24.426Z,-1.75
2018-02-10T11:24:24.240Z,-1.72
2018-02-10T11:26:16.893Z,-2.00
2018-02-10T11:27:16.741Z,-2.06
2018-02-10T11:29:09.435Z,-1.88
2018-02-10T11:30:09.247Z,-1.96
2018-02-10T11:32:02.745Z,-2.10
2018-02-10T11:33:02.602Z,-2.21
2018-02-10T11:34:56.157Z,-2.21
2018-02-10T11:35:55.973Z,-2.14
2018-02-10T11:37:48.616Z,-1.66
2018-02-10T11:38:48.477Z,-1.41
2018-02-10T11:40:41.167Z,-1.27
2018-02-10T11:41:40.988Z,-1.20
2018-02-10T11:43:33.735Z,-1.23
2018-02-10T11:44:33.537Z,-1.41
2018-02-10T11:46:26.229Z,-1.30
2018-02-10T11:47:26.048Z,-1.25
2018-02-10T11:49:18.696Z,-0.92
2018-02-10T11:50:18.561Z,-0.94
2018-02-10T11:52:11.253Z,-1.15
2018-02-10T11:53:11.066Z,-1.42
2018-02-10T11:55:03.715Z,-1.57
2018-02-10T11:56:03.579Z,-1.75
2018-02-10T11:57:56.268Z,-1.70
2018-02-10T11:58:56.082Z,-1.85
2018-02-10T12:00:48.738Z,-1.78
2018-02-10T12:01:48.600Z,-1.90
2018-02-10T12:03:41.293Z,-1.92
2018-02-10T12:04:41.116Z,-1.85
2018-02-10T12:06:33.757Z,-1.85
2018-02-10T12:07:33.615Z,-1.77
2018-02-10T12:09:26.314Z,-1.74
2018-02-10T12:10:26.130Z,-1.81
2018-02-10T12:12:18.774Z,-2.10
2018-02-10T12:13:18.634Z,-1.92
2018-02-10T12:15:11.327Z,-2.05
2018-02-10T12:16:11.139Z,-2.23
2018-02-10T12:18:03.788Z,-2.53
2018-02-10T12:19:03.646Z,-2.50
2018-02-10T12:20:57.182Z,-2.10
2018-02-10T12:21:57.002Z,-1.85
2018-02-10T12:23:49.658Z,-1.57
2018-02-10T12:24:49.517Z,-1.54
2018-02-10T12:26:42.216Z,-1.28
2018-02-10T12:27:42.035Z,-1.30
2018-02-10T12:29:34.683Z,-1.27
2018-02-10T12:30:34.538Z,-1.31
2018-02-10T12:32:27.259Z,-1.20
2018-02-10T12:33:27.067Z,-1.17
2018-02-10T12:35:19.959Z,-0.99
2018-02-10T12:36:19.816Z,-1.02
2018-02-10T12:38:12.498Z,-0.97
2018-02-10T12:39:12.330Z,-0.89
2018-02-10T12:41:06.691Z,-1.06
2018-02-10T12:42:06.547Z,-0.97
2018-02-10T12:43:59.241Z,-1.28
2018-02-10T12:44:59.057Z,-1.31
2018-02-10T12:46:51.739Z,-1.53
2018-02-10T12:47:51.585Z,-1.54
2018-02-10T12:49:44.268Z,-1.45
2018-02-10T12:50:44.095Z,-1.25
2018-02-10T12:52:37.595Z,-1.30
2018-02-10T12:53:37.458Z,-1.21
2018-02-10T12:55:31.031Z,-1.25
2018-02-10T12:56:30.849Z,-1.23
2018-02-10T12:58:23.523Z,-1.09
2018-02-10T12:59:23.386Z,-1.18
2018-02-10T13:01:16.077Z,-1.03
2018-02-10T13:02:15.900Z,-1.02
2018-02-10T13:04:08.538Z,-0.83
2018-02-10T13:05:08.401Z,-0.87
2018-02-10T13:07:01.095Z,-0.86
2018-02-10T13:08:00.915Z,-0.72
2018-02-10T13:09:53.610Z,-0.63
2018-02-10T13:10:53.430Z,-0.47
2018-02-10T13:12:46.137Z,-0.66
2018-02-10T13:13:45.978Z,-0.77
2018-02-10T13:15:38.672Z,-0.48
2018-02-10T13:16:38.496Z,-0.34
2018-02-10T13:18:31.144Z,-0.65
2018-02-10T13:19:31.002Z,-0.72
2018-02-10T13:21:23.714Z,-0.27
2018-02-10T13:22:23.529Z,-0.06
2018-02-10T13:24:16.206Z,0.18
2018-02-10T13:25:16.063Z,0.30
2018-02-10T13:27:08.765Z,0.10
2018-02-10T13:28:08.588Z,0.12
2018-02-10T13:30:01.291Z,0.25
2018-02-10T13:31:01.146Z,0.34
2018-02-10T13:32:53.838Z,0.45
2018-02-10T13:33:53.654Z,0.52
2018-02-10T13:35:46.308Z,0.46
2018-02-10T13:36:46.166Z,0.33
2018-02-10T13:38:38.858Z,0.07
2018-02-10T13:39:38.678Z,-0.01
2018-02-10T13:41:31.357Z,0.31
2018-02-10T13:42:31.190Z,0.51
2018-02-10T13:44:23.900Z,0.48
2018-02-10T13:45:23.717Z,0.18
2018-02-10T13:47:16.364Z,0.43
2018-02-10T13:48:16.224Z,-0.05
2018-02-10T13:50:08.946Z,-0.06
2018-02-10T13:51:08.749Z,-0.11
2018-02-10T13:53:01.397Z,-0.01
2018-02-10T13:54:01.257Z,0.24
2018-02-10T13:55:53.948Z,0.51
2018-02-10T13:56:53.770Z,0.41
2018-02-10T13:58:46.428Z,0.10
2018-02-10T13:59:46.289Z,-0.09
2018-02-10T14:01:39.830Z,-0.26
2018-02-10T14:02:39.646Z,-0.47
2018-02-10T14:04:32.310Z,-0.68
2018-02-10T14:05:32.187Z,-1.06
2018-02-10T14:07:24.956Z,-1.53
2018-02-10T14:08:24.793Z,-1.66
2018-02-10T14:10:17.419Z,-1.59
2018-02-10T14:11:17.280Z,-1.57
2018-02-10T14:13:10.135Z,-1.45
2018-02-10T14:14:09.790Z,-1.42
2018-02-10T14:16:17.877Z,-1.27
2018-02-10T14:17:17.837Z,-1.30
2018-02-10T14:19:10.355Z,-1.36
2018-02-10T14:20:10.178Z,-1.42
2018-02-10T14:22:02.871Z,-1.38
2018-02-10T14:23:02.683Z,-1.27
2018-02-10T14:24:55.460Z,-1.46
2018-02-10T14:25:55.321Z,-1.41
2018-02-10T14:27:48.055Z,-1.30
2018-02-10T14:28:55.081Z,-1.27
2018-02-10T14:30:40.626Z,-1.25
2018-02-10T14:31:40.333Z,-1.15
2018-02-10T14:33:33.021Z,-1.27
2018-02-10T14:34:32.838Z,-1.43
2018-02-10T14:36:25.488Z,-1.41
2018-02-10T14:37:25.351Z,-1.30
2018-02-10T14:39:18.129Z,-1.35
2018-02-10T14:40:17.950Z,-1.43
2018-02-10T14:42:11.466Z,-1.36
2018-02-10T14:43:11.325Z,-1.38
2018-02-10T14:45:04.021Z,-1.46
2018-02-10T14:46:03.836Z,-1.49
2018-02-10T14:47:56.656Z,-1.64
2018-02-10T14:48:56.355Z,-1.67
2018-02-10T14:50:49.942Z,-1.45
2018-02-10T14:51:49.718Z,-1.45
2018-02-10T14:53:42.368Z,-1.39
2018-02-10T14:54:42.228Z,-1.43
2018-02-10T14:56:34.912Z,-1.41
2018-02-10T14:57:34.731Z,-1.27
2018-02-10T14:59:27.380Z,-1.20
2018-02-10T15:00:27.238Z,-1.30
2018-02-10T15:02:19.931Z,-1.24
2018-02-10T15:03:19.746Z,-1.43
2018-02-10T15:05:12.393Z,-1.42
2018-02-10T15:06:12.251Z,-1.46
2018-02-10T15:08:04.926Z,-1.35
2018-02-10T15:09:04.757Z,-1.35
2018-02-10T15:10:57.403Z,-1.31
2018-02-10T15:11:57.261Z,-1.27
2018-02-10T15:13:49.951Z,-1.18
2018-02-10T15:14:49.774Z,-1.31